sensor_id;sensor_type;location;lat;lon;timestamp;pressure;altitude;pressure_sealevel;temperature;humidity
55466;BME280;41329;41.594;23.810;2023-11-21T00:00:01;95141.56;;;6.72;63.12
55466;BME280;41329;41.594;23.810;2023-11-21T00:02:27;95145.47;;;6.71;63.05
55466;BME280;41329;41.594;23.810;2023-11-21T00:04:53;95146.31;;;6.59;63.36
55466;BME280;41329;41.594;23.810;2023-11-21T00:07:18;95145.50;;;6.58;63.46
55466;BME280;41329;41.594;23.810;2023-11-21T00:09:45;95155.72;;;6.58;63.22
55466;BME280;41329;41.594;23.810;2023-11-21T00:12:10;95161.81;;;6.52;63.04
55466;BME280;41329;41.594;23.810;2023-11-21T00:14:36;95159.50;;;6.53;63.70
55466;BME280;41329;41.594;23.810;2023-11-21T00:17:04;95141.22;;;6.45;64.15
55466;BME280;41329;41.594;23.810;2023-11-21T00:19:30;95157.84;;;6.49;64.18
55466;BME280;41329;41.594;23.810;2023-11-21T00:21:56;95145.25;;;6.36;63.93
55466;BME280;41329;41.594;23.810;2023-11-21T00:24:23;95146.41;;;6.35;63.90
55466;BME280;41329;41.594;23.810;2023-11-21T00:26:50;95163.56;;;6.44;63.98
55466;BME280;41329;41.594;23.810;2023-11-21T00:29:15;95141.19;;;6.30;63.69
55466;BME280;41329;41.594;23.810;2023-11-21T00:31:43;95143.84;;;6.26;63.55
55466;BME280;41329;41.594;23.810;2023-11-21T00:34:11;95168.41;;;6.35;63.85
55466;BME280;41329;41.594;23.810;2023-11-21T00:36:37;95168.41;;;6.35;64.20
55466;BME280;41329;41.594;23.810;2023-11-21T00:39:02;95153.13;;;6.22;64.00
55466;BME280;41329;41.594;23.810;2023-11-21T00:41:28;95164.56;;;6.24;64.44
55466;BME280;41329;41.594;23.810;2023-11-21T00:43:54;95141.72;;;6.08;64.47
55466;BME280;41329;41.594;23.810;2023-11-21T00:46:20;95172.00;;;6.23;64.51
55466;BME280;41329;41.594;23.810;2023-11-21T00:48:46;95169.25;;;6.23;64.92
55466;BME280;41329;41.594;23.810;2023-11-21T00:51:11;95170.84;;;6.24;65.27
55466;BME280;41329;41.594;23.810;2023-11-21T00:53:37;95168.91;;;6.25;65.10
55466;BME280;41329;41.594;23.810;2023-11-21T00:56:02;95165.00;;;6.26;65.23
55466;BME280;41329;41.594;23.810;2023-11-21T00:58:28;95155.16;;;6.25;65.25
55466;BME280;41329;41.594;23.810;2023-11-21T01:00:53;95159.50;;;6.26;65.63
55466;BME280;41329;41.594;23.810;2023-11-21T01:03:19;95154.34;;;6.24;65.08
55466;BME280;41329;41.594;23.810;2023-11-21T01:05:45;95160.31;;;6.26;65.18
55466;BME280;41329;41.594;23.810;2023-11-21T01:08:11;95147.06;;;6.16;65.12
55466;BME280;41329;41.594;23.810;2023-11-21T01:10:37;95169.34;;;6.27;64.54
55466;BME280;41329;41.594;23.810;2023-11-21T01:13:03;95154.84;;;6.14;64.04
55466;BME280;41329;41.594;23.810;2023-11-21T01:15:35;95150.31;;;6.06;64.06
55466;BME280;41329;41.594;23.810;2023-11-21T01:18:00;95169.53;;;6.06;64.28
55466;BME280;41329;41.594;23.810;2023-11-21T01:20:26;95160.38;;;6.02;64.05
55466;BME280;41329;41.594;23.810;2023-11-21T01:22:51;95157.06;;;5.97;64.62
55466;BME280;41329;41.594;23.810;2023-11-21T01:25:19;95156.50;;;5.91;65.35
55466;BME280;41329;41.594;23.810;2023-11-21T01:27:44;95162.56;;;5.97;66.01
55466;BME280;41329;41.594;23.810;2023-11-21T01:30:10;95156.28;;;5.96;66.29
55466;BME280;41329;41.594;23.810;2023-11-21T01:32:36;95154.78;;;5.99;65.60
55466;BME280;41329;41.594;23.810;2023-11-21T01:35:02;95151.56;;;5.97;65.01
55466;BME280;41329;41.594;23.810;2023-11-21T01:37:27;95151.00;;;5.91;64.81
55466;BME280;41329;41.594;23.810;2023-11-21T01:39:56;95133.53;;;5.84;65.15
55466;BME280;41329;41.594;23.810;2023-11-21T01:42:21;95150.66;;;5.93;65.24
55466;BME280;41329;41.594;23.810;2023-11-21T01:44:47;95151.00;;;5.91;65.15
55466;BME280;41329;41.594;23.810;2023-11-21T01:47:13;95142.34;;;5.89;64.74
55466;BME280;41329;41.594;23.810;2023-11-21T01:49:39;95153.09;;;5.82;64.63
55466;BME280;41329;41.594;23.810;2023-11-21T01:52:05;95132.28;;;5.69;64.69
55466;BME280;41329;41.594;23.810;2023-11-21T01:54:32;95147.72;;;5.74;64.92
55466;BME280;41329;41.594;23.810;2023-11-21T01:57:00;95149.41;;;5.66;65.26
55466;BME280;41329;41.594;23.810;2023-11-21T01:59:33;95140.06;;;5.55;65.04
55466;BME280;41329;41.594;23.810;2023-11-21T02:01:59;95140.19;;;5.47;65.21
55466;BME280;41329;41.594;23.810;2023-11-21T02:04:25;95126.03;;;5.33;65.25
55466;BME280;41329;41.594;23.810;2023-11-21T02:06:50;95147.16;;;5.44;65.69
55466;BME280;41329;41.594;23.810;2023-11-21T02:09:16;95152.66;;;5.44;65.94
55466;BME280;41329;41.594;23.810;2023-11-21T02:11:43;95147.50;;;5.31;65.70
55466;BME280;41329;41.594;23.810;2023-11-21T02:14:09;95147.16;;;5.32;65.71
55466;BME280;41329;41.594;23.810;2023-11-21T02:16:35;95149.13;;;5.32;66.18
55466;BME280;41329;41.594;23.810;2023-11-21T02:19:02;95133.00;;;5.18;66.38
55466;BME280;41329;41.594;23.810;2023-11-21T02:21:32;95158.03;;;5.29;66.50
55466;BME280;41329;41.594;23.810;2023-11-21T02:23:57;95100.41;;;4.93;66.42
55466;BME280;41329;41.594;23.810;2023-11-21T02:26:23;95156.09;;;5.29;66.75
55466;BME280;41329;41.594;23.810;2023-11-21T02:28:50;95130.81;;;5.12;67.18
55466;BME280;41329;41.594;23.810;2023-11-21T02:31:18;95141.00;;;5.23;67.28
55466;BME280;41329;41.594;23.810;2023-11-21T02:33:44;95158.03;;;5.29;67.33
55466;BME280;41329;41.594;23.810;2023-11-21T02:36:09;95129.00;;;5.16;67.16
55466;BME280;41329;41.594;23.810;2023-11-21T02:38:35;95146.38;;;5.32;67.28
55466;BME280;41329;41.594;23.810;2023-11-21T02:41:00;95129.25;;;5.23;67.28
55466;BME280;41329;41.594;23.810;2023-11-21T02:43:25;95154.72;;;5.35;67.38
55466;BME280;41329;41.594;23.810;2023-11-21T02:45:51;95150.38;;;5.34;67.33
55466;BME280;41329;41.594;23.810;2023-11-21T02:48:16;95145.56;;;5.31;67.41
55466;BME280;41329;41.594;23.810;2023-11-21T02:50:42;95145.56;;;5.31;66.98
55466;BME280;41329;41.594;23.810;2023-11-21T02:53:09;95145.22;;;5.33;66.74
55466;BME280;41329;41.594;23.810;2023-11-21T02:55:36;95144.56;;;5.36;66.47
55466;BME280;41329;41.594;23.810;2023-11-21T02:58:02;95143.97;;;5.30;66.53
55466;BME280;41329;41.594;23.810;2023-11-21T03:00:29;95141.34;;;5.34;66.96
55466;BME280;41329;41.594;23.810;2023-11-21T03:02:55;95134.25;;;5.33;66.98
55466;BME280;41329;41.594;23.810;2023-11-21T03:05:21;95145.66;;;5.35;66.92
55466;BME280;41329;41.594;23.810;2023-11-21T03:07:46;95146.81;;;5.34;66.66
55466;BME280;41329;41.594;23.810;2023-11-21T03:10:12;95136.91;;;5.29;66.57
55466;BME280;41329;41.594;23.810;2023-11-21T03:12:38;95130.50;;;5.25;66.77
55466;BME280;41329;41.594;23.810;2023-11-21T03:15:07;95144.56;;;5.36;66.99
55466;BME280;41329;41.594;23.810;2023-11-21T03:17:33;95148.88;;;5.37;67.21
55466;BME280;41329;41.594;23.810;2023-11-21T03:20:00;95129.56;;;5.33;67.03
55466;BME280;41329;41.594;23.810;2023-11-21T03:22:25;95137.91;;;5.37;66.73
55466;BME280;41329;41.594;23.810;2023-11-21T03:24:52;95111.16;;;5.22;66.33
55466;BME280;41329;41.594;23.810;2023-11-21T03:27:18;95123.03;;;5.26;66.29
55466;BME280;41329;41.594;23.810;2023-11-21T03:29:44;95139.50;;;5.26;65.91
55466;BME280;41329;41.594;23.810;2023-11-21T03:32:10;95147.03;;;5.17;65.13
55466;BME280;41329;41.594;23.810;2023-11-21T03:34:35;95141.31;;;5.10;64.70
55466;BME280;41329;41.594;23.810;2023-11-21T03:37:17;95116.75;;;4.89;64.56
55466;BME280;41329;41.594;23.810;2023-11-21T03:39:43;95105.19;;;4.72;65.18
55466;BME280;41329;41.594;23.810;2023-11-21T03:42:08;95139.34;;;4.86;65.39
55466;BME280;41329;41.594;23.810;2023-11-21T03:44:34;95133.97;;;4.78;65.24
55466;BME280;41329;41.594;23.810;2023-11-21T03:46:59;95122.50;;;4.64;65.45
55466;BME280;41329;41.594;23.810;2023-11-21T03:49:24;95132.34;;;4.65;65.72
55466;BME280;41329;41.594;23.810;2023-11-21T03:51:50;95139.78;;;4.64;66.12
55466;BME280;41329;41.594;23.810;2023-11-21T03:54:15;95109.00;;;4.47;66.02
55466;BME280;41329;41.594;23.810;2023-11-21T03:56:41;95128.44;;;4.54;65.62
55466;BME280;41329;41.594;23.810;2023-11-21T03:59:06;95139.13;;;4.47;65.75
55466;BME280;41329;41.594;23.810;2023-11-21T04:01:31;95121.41;;;4.32;65.93
55466;BME280;41329;41.594;23.810;2023-11-21T04:03:57;95140.16;;;4.42;66.08
55466;BME280;41329;41.594;23.810;2023-11-21T04:06:22;95137.66;;;4.37;66.49
55466;BME280;41329;41.594;23.810;2023-11-21T04:08:48;95146.03;;;4.32;66.88
55466;BME280;41329;41.594;23.810;2023-11-21T04:11:13;95134.72;;;4.22;66.95
55466;BME280;41329;41.594;23.810;2023-11-21T04:13:40;95123.19;;;4.16;67.13
55466;BME280;41329;41.594;23.810;2023-11-21T04:16:07;95139.91;;;4.35;67.12
55466;BME280;41329;41.594;23.810;2023-11-21T04:18:33;95129.16;;;4.30;67.18
55466;BME280;41329;41.594;23.810;2023-11-21T04:20:59;95134.97;;;4.29;67.67
55466;BME280;41329;41.594;23.810;2023-11-21T04:23:25;95137.59;;;4.25;67.38
55466;BME280;41329;41.594;23.810;2023-11-21T04:25:50;95151.03;;;4.18;67.43
55466;BME280;41329;41.594;23.810;2023-11-21T04:28:15;95153.09;;;4.21;67.54
55466;BME280;41329;41.594;23.810;2023-11-21T04:30:41;95131.59;;;4.11;67.56
55466;BME280;41329;41.594;23.810;2023-11-21T04:33:06;95143.41;;;4.24;67.74
55466;BME280;41329;41.594;23.810;2023-11-21T04:35:33;95157.38;;;4.31;67.83
55466;BME280;41329;41.594;23.810;2023-11-21T04:37:58;95153.47;;;4.32;68.17
55466;BME280;41329;41.594;23.810;2023-11-21T04:40:23;95109.25;;;4.09;68.73
55466;BME280;41329;41.594;23.810;2023-11-21T04:42:49;95122.16;;;4.21;68.73
55466;BME280;41329;41.594;23.810;2023-11-21T04:45:14;95136.94;;;4.40;68.73
55466;BME280;41329;41.594;23.810;2023-11-21T04:47:41;95140.16;;;4.42;68.76
55466;BME280;41329;41.594;23.810;2023-11-21T04:50:06;95124.28;;;4.36;68.92
55466;BME280;41329;41.594;23.810;2023-11-21T04:52:32;95156.31;;;4.56;69.10
55466;BME280;41329;41.594;23.810;2023-11-21T04:54:58;95141.53;;;4.48;69.35
55466;BME280;41329;41.594;23.810;2023-11-21T04:57:26;95158.13;;;4.64;69.31
55466;BME280;41329;41.594;23.810;2023-11-21T04:59:53;95134.59;;;4.51;69.18
55466;BME280;41329;41.594;23.810;2023-11-21T05:02:19;95159.44;;;4.66;68.38
55466;BME280;41329;41.594;23.810;2023-11-21T05:04:46;95164.66;;;4.59;68.41
55466;BME280;41329;41.594;23.810;2023-11-21T05:07:12;95160.31;;;4.58;68.22
55466;BME280;41329;41.594;23.810;2023-11-21T05:09:42;95171.06;;;4.63;68.30
55466;BME280;41329;41.594;23.810;2023-11-21T05:12:11;95163.97;;;4.62;68.52
55466;BME280;41329;41.594;23.810;2023-11-21T05:14:37;95166.47;;;4.55;68.62
55466;BME280;41329;41.594;23.810;2023-11-21T05:17:03;95142.97;;;4.34;68.47
55466;BME280;41329;41.594;23.810;2023-11-21T05:19:29;95156.66;;;4.34;68.40
55466;BME280;41329;41.594;23.810;2023-11-21T05:21:55;95174.75;;;4.47;68.44
55466;BME280;41329;41.594;23.810;2023-11-21T05:24:20;95172.09;;;4.38;68.60
55466;BME280;41329;41.594;23.810;2023-11-21T05:26:45;95122.16;;;3.88;68.81
55466;BME280;41329;41.594;23.810;2023-11-21T05:29:11;95187.44;;;4.19;68.99
55466;BME280;41329;41.594;23.810;2023-11-21T05:31:36;95182.06;;;4.22;68.57
55466;BME280;41329;41.594;23.810;2023-11-21T05:34:04;95190.00;;;4.15;68.94
55466;BME280;41329;41.594;23.810;2023-11-21T05:36:30;95187.69;;;4.05;69.36
55466;BME280;41329;41.594;23.810;2023-11-21T05:38:56;95184.28;;;4.08;69.17
55466;BME280;41329;41.594;23.810;2023-11-21T05:41:21;95189.56;;;4.13;69.56
55466;BME280;41329;41.594;23.810;2023-11-21T05:43:47;95177.81;;;4.13;69.36
55466;BME280;41329;41.594;23.810;2023-11-21T05:46:12;95169.53;;;4.01;69.67
55466;BME280;41329;41.594;23.810;2023-11-21T05:48:38;95194.84;;;4.18;69.66
55466;BME280;41329;41.594;23.810;2023-11-21T05:51:07;95192.09;;;4.18;69.70
55466;BME280;41329;41.594;23.810;2023-11-21T05:53:33;95177.13;;;4.16;69.77
55466;BME280;41329;41.594;23.810;2023-11-21T05:55:59;95188.81;;;4.25;70.24
55466;BME280;41329;41.594;23.810;2023-11-21T05:58:25;95186.69;;;4.30;70.24
55466;BME280;41329;41.594;23.810;2023-11-21T06:00:50;95199.38;;;4.35;70.32
55466;BME280;41329;41.594;23.810;2023-11-21T06:03:16;95186.13;;;4.37;70.60
55466;BME280;41329;41.594;23.810;2023-11-21T06:05:42;95183.59;;;4.32;70.42
55466;BME280;41329;41.594;23.810;2023-11-21T06:08:08;95183.44;;;4.16;70.23
55466;BME280;41329;41.594;23.810;2023-11-21T06:10:34;95178.88;;;4.20;69.94
55466;BME280;41329;41.594;23.810;2023-11-21T06:12:59;95180.59;;;4.25;70.24
55466;BME280;41329;41.594;23.810;2023-11-21T06:15:25;95190.03;;;4.36;70.60
55466;BME280;41329;41.594;23.810;2023-11-21T06:17:51;95196.88;;;4.42;70.65
55466;BME280;41329;41.594;23.810;2023-11-21T06:20:20;95193.75;;;4.31;70.83
55466;BME280;41329;41.594;23.810;2023-11-21T06:22:48;95192.66;;;4.44;70.73
55466;BME280;41329;41.594;23.810;2023-11-21T06:25:14;95192.94;;;4.51;70.67
55466;BME280;41329;41.594;23.810;2023-11-21T06:27:41;95205.88;;;4.63;70.61
55466;BME280;41329;41.594;23.810;2023-11-21T06:30:07;95211.69;;;4.61;70.78
55466;BME280;41329;41.594;23.810;2023-11-21T06:32:35;95208.38;;;4.68;70.78
55466;BME280;41329;41.594;23.810;2023-11-21T06:35:01;95217.69;;;4.75;70.93
55466;BME280;41329;41.594;23.810;2023-11-21T06:37:27;95180.41;;;4.62;71.11
55466;BME280;41329;41.594;23.810;2023-11-21T06:39:53;95196.69;;;4.79;71.09
55466;BME280;41329;41.594;23.810;2023-11-21T06:42:19;95210.41;;;4.91;70.94
55466;BME280;41329;41.594;23.810;2023-11-21T06:44:48;95207.47;;;4.96;70.90
55466;BME280;41329;41.594;23.810;2023-11-21T06:47:14;95218.88;;;4.98;70.96
55466;BME280;41329;41.594;23.810;2023-11-21T06:49:42;95221.94;;;4.97;70.73
55466;BME280;41329;41.594;23.810;2023-11-21T06:52:07;95218.19;;;4.89;70.56
55466;BME280;41329;41.594;23.810;2023-11-21T06:54:33;95214.25;;;4.78;70.70
55466;BME280;41329;41.594;23.810;2023-11-21T06:57:00;95214.50;;;4.85;70.75
55466;BME280;41329;41.594;23.810;2023-11-21T06:59:25;95217.25;;;4.85;70.91
55466;BME280;41329;41.594;23.810;2023-11-21T07:01:51;95206.19;;;4.94;71.12
55466;BME280;41329;41.594;23.810;2023-11-21T07:04:16;95207.81;;;5.07;71.52
55466;BME280;41329;41.594;23.810;2023-11-21T07:06:43;95215.72;;;5.08;71.87
55466;BME280;41329;41.594;23.810;2023-11-21T07:09:09;95212.41;;;5.15;71.79
55466;BME280;41329;41.594;23.810;2023-11-21T07:11:37;95194.91;;;5.07;72.04
55466;BME280;41329;41.594;23.810;2023-11-21T07:14:03;95218.94;;;5.22;72.68
55466;BME280;41329;41.594;23.810;2023-11-21T07:16:36;95217.34;;;5.33;73.02
55466;BME280;41329;41.594;23.810;2023-11-21T07:19:06;95215.19;;;5.51;73.37
55466;BME280;41329;41.594;23.810;2023-11-21T07:21:36;95200.31;;;5.52;72.80
55466;BME280;41329;41.594;23.810;2023-11-21T07:24:05;95204.22;;;5.63;72.28
55466;BME280;41329;41.594;23.810;2023-11-21T07:26:32;95199.06;;;5.61;72.56
55466;BME280;41329;41.594;23.810;2023-11-21T07:28:58;95209.03;;;5.66;72.54
55466;BME280;41329;41.594;23.810;2023-11-21T07:31:24;95207.22;;;5.82;73.38
55466;BME280;41329;41.594;23.810;2023-11-21T07:33:50;95184.19;;;5.86;73.85
55466;BME280;41329;41.594;23.810;2023-11-21T07:36:16;95187.38;;;6.00;73.70
55466;BME280;41329;41.594;23.810;2023-11-21T07:38:49;95202.59;;;6.10;72.67
55466;BME280;41329;41.594;23.810;2023-11-21T07:41:15;95202.13;;;6.08;72.34
55466;BME280;41329;41.594;23.810;2023-11-21T07:43:41;95186.41;;;6.20;72.74
55466;BME280;41329;41.594;23.810;2023-11-21T07:46:06;95197.13;;;6.37;72.59
55466;BME280;41329;41.594;23.810;2023-11-21T07:48:33;95205.84;;;6.39;71.54
55466;BME280;41329;41.594;23.810;2023-11-21T07:51:00;95203.44;;;6.38;72.28
55466;BME280;41329;41.594;23.810;2023-11-21T07:53:26;95195.25;;;6.53;73.11
55466;BME280;41329;41.594;23.810;2023-11-21T07:55:54;95191.34;;;6.54;71.83
55466;BME280;41329;41.594;23.810;2023-11-21T07:58:20;95203.53;;;6.69;71.84
55466;BME280;41329;41.594;23.810;2023-11-21T08:00:45;95205.19;;;6.86;72.69
55466;BME280;41329;41.594;23.810;2023-11-21T08:03:13;95209.28;;;6.92;72.78
55466;BME280;41329;41.594;23.810;2023-11-21T08:05:38;95209.81;;;6.97;72.19
55466;BME280;41329;41.594;23.810;2023-11-21T08:08:04;95212.38;;;6.90;71.46
55466;BME280;41329;41.594;23.810;2023-11-21T08:10:29;95223.72;;;6.89;71.66
55466;BME280;41329;41.594;23.810;2023-11-21T08:12:55;95209.53;;;6.87;71.89
55466;BME280;41329;41.594;23.810;2023-11-21T08:15:21;95203.34;;;6.90;72.22
55466;BME280;41329;41.594;23.810;2023-11-21T08:17:47;95204.00;;;7.14;72.92
55466;BME280;41329;41.594;23.810;2023-11-21T08:20:12;95203.13;;;7.41;73.82
55466;BME280;41329;41.594;23.810;2023-11-21T08:22:44;95214.06;;;7.69;72.94
55466;BME280;41329;41.594;23.810;2023-11-21T08:25:10;95211.84;;;7.90;72.56
55466;BME280;41329;41.594;23.810;2023-11-21T08:27:36;95203.69;;;8.12;72.25
55466;BME280;41329;41.594;23.810;2023-11-21T08:30:03;95212.13;;;8.19;71.01
55466;BME280;41329;41.594;23.810;2023-11-21T08:32:29;95181.47;;;8.21;69.60
55466;BME280;41329;41.594;23.810;2023-11-21T08:34:57;95188.69;;;8.44;69.49
55466;BME280;41329;41.594;23.810;2023-11-21T08:37:23;95184.44;;;8.66;69.29
55466;BME280;41329;41.594;23.810;2023-11-21T08:39:49;95180.06;;;8.84;68.30
55466;BME280;41329;41.594;23.810;2023-11-21T08:42:14;95186.28;;;9.00;67.06
55466;BME280;41329;41.594;23.810;2023-11-21T08:44:40;95189.38;;;9.17;66.95
55466;BME280;41329;41.594;23.810;2023-11-21T08:47:06;95187.06;;;9.19;66.55
55466;BME280;41329;41.594;23.810;2023-11-21T08:49:32;95166.16;;;9.18;64.80
55466;BME280;41329;41.594;23.810;2023-11-21T08:51:58;95183.81;;;9.36;64.72
55466;BME280;41329;41.594;23.810;2023-11-21T08:54:26;95194.56;;;9.41;63.69
55466;BME280;41329;41.594;23.810;2023-11-21T08:56:53;95181.25;;;9.47;65.10
55466;BME280;41329;41.594;23.810;2023-11-21T08:59:20;95180.03;;;9.44;64.84
55466;BME280;41329;41.594;23.810;2023-11-21T09:01:45;95164.41;;;9.55;64.12
55466;BME280;41329;41.594;23.810;2023-11-21T09:04:11;95169.38;;;9.69;63.90
55466;BME280;41329;41.594;23.810;2023-11-21T09:06:39;95150.16;;;9.76;63.82
55466;BME280;41329;41.594;23.810;2023-11-21T09:09:05;95150.13;;;9.98;64.16
55466;BME280;41329;41.594;23.810;2023-11-21T09:11:32;95131.03;;;9.90;62.44
55466;BME280;41329;41.594;23.810;2023-11-21T09:13:59;95142.94;;;10.20;61.61
55466;BME280;41329;41.594;23.810;2023-11-21T09:16:25;95122.91;;;10.26;60.08
55466;BME280;41329;41.594;23.810;2023-11-21T09:18:51;95136.13;;;10.40;59.38
55466;BME280;41329;41.594;23.810;2023-11-21T09:21:16;95132.88;;;10.34;59.31
55466;BME280;41329;41.594;23.810;2023-11-21T09:23:44;95117.28;;;10.19;59.40
55466;BME280;41329;41.594;23.810;2023-11-21T09:26:10;95128.38;;;10.23;58.74
55466;BME280;41329;41.594;23.810;2023-11-21T09:28:35;95129.34;;;10.34;59.02
55466;BME280;41329;41.594;23.810;2023-11-21T09:31:04;95124.91;;;10.29;57.89
55466;BME280;41329;41.594;23.810;2023-11-21T09:33:29;95120.56;;;10.28;58.21
55466;BME280;41329;41.594;23.810;2023-11-21T09:35:56;95112.75;;;10.34;58.38
55466;BME280;41329;41.594;23.810;2023-11-21T09:38:22;95108.84;;;10.38;59.25
55466;BME280;41329;41.594;23.810;2023-11-21T09:40:47;95092.19;;;10.31;58.67
55466;BME280;41329;41.594;23.810;2023-11-21T09:43:17;95090.75;;;10.44;58.55
55466;BME280;41329;41.594;23.810;2023-11-21T09:45:47;95098.81;;;10.56;58.45
55466;BME280;41329;41.594;23.810;2023-11-21T09:48:14;95096.09;;;10.60;58.99
55466;BME280;41329;41.594;23.810;2023-11-21T09:50:42;95096.66;;;10.76;59.75
55466;BME280;41329;41.594;23.810;2023-11-21T09:53:17;95090.81;;;10.84;59.73
55466;BME280;41329;41.594;23.810;2023-11-21T09:55:45;95082.16;;;10.89;59.62
55466;BME280;41329;41.594;23.810;2023-11-21T09:58:12;95077.66;;;11.11;59.40
55466;BME280;41329;41.594;23.810;2023-11-21T10:00:42;95064.34;;;11.27;58.93
55466;BME280;41329;41.594;23.810;2023-11-21T10:03:08;95076.47;;;11.59;58.52
55466;BME280;41329;41.594;23.810;2023-11-21T10:05:35;95045.25;;;11.62;57.53
55466;BME280;41329;41.594;23.810;2023-11-21T10:08:01;95066.00;;;11.78;55.17
55466;BME280;41329;41.594;23.810;2023-11-21T10:10:27;95044.22;;;11.80;55.82
55466;BME280;41329;41.594;23.810;2023-11-21T10:12:56;95059.78;;;11.99;56.67
55466;BME280;41329;41.594;23.810;2023-11-21T10:15:23;95050.75;;;12.12;56.05
55466;BME280;41329;41.594;23.810;2023-11-21T10:17:50;95052.38;;;12.20;54.59
55466;BME280;41329;41.594;23.810;2023-11-21T10:20:19;95051.53;;;12.13;52.98
55466;BME280;41329;41.594;23.810;2023-11-21T10:22:45;95048.63;;;11.88;53.45
55466;BME280;41329;41.594;23.810;2023-11-21T10:25:11;95039.22;;;12.03;54.35
55466;BME280;41329;41.594;23.810;2023-11-21T10:27:40;95021.78;;;12.06;54.00
55466;BME280;41329;41.594;23.810;2023-11-21T10:30:07;95026.59;;;12.16;53.48
55466;BME280;41329;41.594;23.810;2023-11-21T10:32:43;95010.63;;;11.96;52.72
55466;BME280;41329;41.594;23.810;2023-11-21T10:35:09;95001.94;;;11.94;53.81
55466;BME280;41329;41.594;23.810;2023-11-21T10:37:38;95013.56;;;12.20;54.41
55466;BME280;41329;41.594;23.810;2023-11-21T10:40:11;95017.19;;;12.35;54.76
55466;BME280;41329;41.594;23.810;2023-11-21T10:42:38;95011.28;;;12.54;55.46
55466;BME280;41329;41.594;23.810;2023-11-21T10:45:05;95004.50;;;12.44;52.65
55466;BME280;41329;41.594;23.810;2023-11-21T10:47:38;95004.97;;;12.71;54.64
55466;BME280;41329;41.594;23.810;2023-11-21T10:50:05;94970.88;;;12.71;53.20
55466;BME280;41329;41.594;23.810;2023-11-21T10:52:30;94986.78;;;12.77;52.16
55466;BME280;41329;41.594;23.810;2023-11-21T10:54:56;94993.16;;;12.92;53.03
55466;BME280;41329;41.594;23.810;2023-11-21T10:57:25;94953.06;;;12.82;53.18
55466;BME280;41329;41.594;23.810;2023-11-21T10:59:54;94959.44;;;13.04;52.21
55466;BME280;41329;41.594;23.810;2023-11-21T11:02:26;94960.63;;;13.17;52.23
55466;BME280;41329;41.594;23.810;2023-11-21T11:04:54;94949.16;;;13.22;51.21
55466;BME280;41329;41.594;23.810;2023-11-21T11:07:21;94927.72;;;13.15;51.85
55466;BME280;41329;41.594;23.810;2023-11-21T11:09:51;94945.16;;;13.26;50.84
55466;BME280;41329;41.594;23.810;2023-11-21T11:12:17;94917.38;;;13.16;51.03
55466;BME280;41329;41.594;23.810;2023-11-21T11:14:44;94915.44;;;13.13;51.18
55466;BME280;41329;41.594;23.810;2023-11-21T11:17:10;94915.81;;;13.11;51.69
55466;BME280;41329;41.594;23.810;2023-11-21T11:19:36;94911.06;;;12.98;52.10
55466;BME280;41329;41.594;23.810;2023-11-21T11:31:18;94916.94;;;13.49;51.98
55466;BME280;41329;41.594;23.810;2023-11-21T11:36:05;94914.94;;;13.70;51.20
55466;BME280;41329;41.594;23.810;2023-11-21T11:38:33;94906.94;;;13.79;51.38
55466;BME280;41329;41.594;23.810;2023-11-21T11:41:04;94907.31;;;13.81;51.28
55466;BME280;41329;41.594;23.810;2023-11-21T11:43:31;94907.72;;;13.87;51.82
55466;BME280;41329;41.594;23.810;2023-11-21T11:46:10;94885.84;;;13.92;52.07
55466;BME280;41329;41.594;23.810;2023-11-21T11:48:39;94896.06;;;14.16;51.77
55466;BME280;41329;41.594;23.810;2023-11-21T11:51:12;94871.81;;;14.17;51.05
55466;BME280;41329;41.594;23.810;2023-11-21T11:53:47;94902.75;;;14.40;50.36
55466;BME280;41329;41.594;23.810;2023-11-21T11:58:48;94884.38;;;14.53;49.82
55466;BME280;41329;41.594;23.810;2023-11-21T12:01:16;94889.81;;;14.70;50.50
55466;BME280;41329;41.594;23.810;2023-11-21T12:03:42;94880.72;;;14.66;49.83
55466;BME280;41329;41.594;23.810;2023-11-21T12:06:08;94885.75;;;14.82;50.59
55466;BME280;41329;41.594;23.810;2023-11-21T12:08:37;94867.44;;;14.84;49.63
55466;BME280;41329;41.594;23.810;2023-11-21T12:11:04;94872.06;;;15.01;49.52
55466;BME280;41329;41.594;23.810;2023-11-21T12:13:29;94855.81;;;14.93;49.22
55466;BME280;41329;41.594;23.810;2023-11-21T12:15:55;94848.31;;;14.86;49.13
55466;BME280;41329;41.594;23.810;2023-11-21T12:18:21;94849.06;;;14.90;48.64
55466;BME280;41329;41.594;23.810;2023-11-21T12:20:47;94823.22;;;14.90;49.04
55466;BME280;41329;41.594;23.810;2023-11-21T12:23:15;94859.13;;;15.25;49.15
55466;BME280;41329;41.594;23.810;2023-11-21T12:25:42;94841.59;;;15.24;48.91
55466;BME280;41329;41.594;23.810;2023-11-21T12:28:08;94861.25;;;15.51;48.91
55466;BME280;41329;41.594;23.810;2023-11-21T12:30:35;94851.22;;;15.60;48.49
55466;BME280;41329;41.594;23.810;2023-11-21T12:33:02;94854.00;;;15.60;47.71
55466;BME280;41329;41.594;23.810;2023-11-21T12:35:31;94854.47;;;15.55;47.45
55466;BME280;41329;41.594;23.810;2023-11-21T12:37:59;94842.84;;;15.60;47.67
55466;BME280;41329;41.594;23.810;2023-11-21T12:40:25;94858.88;;;15.53;47.56
55466;BME280;41329;41.594;23.810;2023-11-21T12:42:55;94827.25;;;15.26;47.64
55466;BME280;41329;41.594;23.810;2023-11-21T12:45:28;94854.25;;;15.32;48.16
55466;BME280;41329;41.594;23.810;2023-11-21T12:48:04;94851.88;;;15.34;47.86
55466;BME280;41329;41.594;23.810;2023-11-21T12:50:34;94840.75;;;15.34;47.73
55466;BME280;41329;41.594;23.810;2023-11-21T12:53:08;94828.50;;;15.21;47.54
55466;BME280;41329;41.594;23.810;2023-11-21T12:55:36;94824.88;;;15.24;47.93
55466;BME280;41329;41.594;23.810;2023-11-21T12:58:08;94812.13;;;15.23;47.92
55466;BME280;41329;41.594;23.810;2023-11-21T13:00:40;94827.97;;;15.37;47.94
55466;BME280;41329;41.594;23.810;2023-11-21T13:03:08;94820.09;;;15.25;47.91
55466;BME280;41329;41.594;23.810;2023-11-21T13:05:36;94808.47;;;15.33;48.62
55466;BME280;41329;41.594;23.810;2023-11-21T13:08:07;94823.22;;;15.30;48.00